createdAt,value
2022-10-03T00:02:04.754Z,67.25
2022-10-03T00:04:50.678Z,67.19
2022-10-03T00:07:26.772Z,67.36
2022-10-03T00:10:06.141Z,67.64
2022-10-03T00:12:39.466Z,67.74
2022-10-03T00:15:11.703Z,67.57
2022-10-03T00:17:48.254Z,67.69
2022-10-03T00:20:33.847Z,67.43
2022-10-03T00:23:03.858Z,67.25
2022-10-03T00:25:34.196Z,67.12
2022-10-03T00:28:20.007Z,67.36
2022-10-03T00:30:47.211Z,67.13
2022-10-03T00:33:29.532Z,67.44
2022-10-03T00:36:28.965Z,67.44
2022-10-03T00:38:58.868Z,67.22
2022-10-03T00:41:53.842Z,67.13
2022-10-03T00:44:20.956Z,67.65
2022-10-03T00:46:57.346Z,67.58
2022-10-03T00:49:24.505Z,67.86
2022-10-03T00:51:54.948Z,67.26
2022-10-03T00:54:26.594Z,67.35
2022-10-03T00:57:17.178Z,67.29
2022-10-03T01:00:02.592Z,67.47
2022-10-03T01:02:30.779Z,67.70
2022-10-03T01:05:00.733Z,67.58
2022-10-03T01:07:31.987Z,67.72
2022-10-03T01:09:59.102Z,67.63
2022-10-03T01:12:48.918Z,67.64
2022-10-03T01:15:19.186Z,67.64
2022-10-03T01:18:10.235Z,67.69
2022-10-03T01:20:40.116Z,67.53
2022-10-03T01:23:25.785Z,67.52
2022-10-03T01:25:58.864Z,67.85
2022-10-03T01:28:56.624Z,67.61
2022-10-03T01:31:34.797Z,67.81
2022-10-03T01:34:11.289Z,67.85
2022-10-03T01:36:38.457Z,67.73
2022-10-03T01:39:13.909Z,67.60
2022-10-03T01:41:46.943Z,67.63
2022-10-03T01:44:40.784Z,67.43
2022-10-03T01:47:08.623Z,67.44
2022-10-03T01:49:49.895Z,67.76
2022-10-03T01:52:35.880Z,67.85
2022-10-03T01:55:05.912Z,67.92
2022-10-03T01:58:01.239Z,67.75
2022-10-03T02:00:30.949Z,67.89
2022-10-03T02:03:16.980Z,68.12
2022-10-03T02:05:54.649Z,67.91
2022-10-03T02:08:35.641Z,67.82
2022-10-03T02:11:04.145Z,67.88
2022-10-03T02:13:42.320Z,67.81
2022-10-03T02:16:09.526Z,67.73
2022-10-03T02:18:40.076Z,67.99
2022-10-03T02:21:09.753Z,67.90
2022-10-03T02:23:42.188Z,68.10
2022-10-03T02:26:12.310Z,68.48
2022-10-03T02:28:58.068Z,68.16
2022-10-03T02:31:37.267Z,68.10
2022-10-03T02:34:23.406Z,68.05
2022-10-03T02:36:58.669Z,68.08
2022-10-03T02:39:44.604Z,68.22
2022-10-03T02:42:14.709Z,68.09
2022-10-03T02:44:46.352Z,67.86
2022-10-03T02:47:13.519Z,68.19
2022-10-03T02:49:52.679Z,67.66
2022-10-03T02:52:37.938Z,67.87
2022-10-03T02:55:23.696Z,67.83
2022-10-03T02:57:55.803Z,67.89
2022-10-03T03:00:28.441Z,67.75
2022-10-03T03:03:01.148Z,67.89
2022-10-03T03:05:46.874Z,67.95
2022-10-03T03:08:18.330Z,67.96
2022-10-03T03:10:45.445Z,67.87
2022-10-03T03:13:26.084Z,67.97
2022-10-03T03:16:11.875Z,67.68
2022-10-03T03:18:43.807Z,68.05
2022-10-03T03:21:29.742Z,67.78
2022-10-03T03:23:56.927Z,67.82
2022-10-03T03:26:42.893Z,68.12
2022-10-03T03:29:21.358Z,67.93
2022-10-03T03:31:48.601Z,67.72
2022-10-03T03:34:20.143Z,68.07
2022-10-03T03:36:54.347Z,67.94
2022-10-03T03:39:21.526Z,67.91
2022-10-03T03:42:00.866Z,67.94
2022-10-03T03:44:46.075Z,67.82
2022-10-03T03:47:16.000Z,68.02
2022-10-03T03:49:52.146Z,67.81
2022-10-03T03:52:31.570Z,67.84
2022-10-03T03:55:10.647Z,68.01
2022-10-03T03:57:52.870Z,67.50
2022-10-03T04:00:21.202Z,67.74
2022-10-03T04:03:01.283Z,67.84
2022-10-03T04:05:40.918Z,67.75
2022-10-03T04:08:15.215Z,67.63
2022-10-03T04:11:02.749Z,67.46
2022-10-03T04:13:42.191Z,67.29
2022-10-03T04:16:46.870Z,67.68
2022-10-03T04:19:32.716Z,67.64
2022-10-03T04:22:12.151Z,67.48
2022-10-03T04:25:04.176Z,67.46
2022-10-03T04:27:47.743Z,67.68
2022-10-03T04:30:51.622Z,67.42
2022-10-03T04:33:25.507Z,67.75
2022-10-03T04:35:55.411Z,67.62
2022-10-03T04:38:43.137Z,67.86
2022-10-03T04:41:33.577Z,67.75
2022-10-03T04:44:08.716Z,67.49
2022-10-03T04:47:00.564Z,67.49
2022-10-03T04:49:27.767Z,67.60
2022-10-03T04:52:12.585Z,67.53
2022-10-03T04:54:48.178Z,67.64
2022-10-03T04:57:18.953Z,67.45
2022-10-03T04:59:46.339Z,67.37
2022-10-03T05:02:15.264Z,67.41
2022-10-03T05:04:42.469Z,67.53
2022-10-03T05:07:18.581Z,67.40
2022-10-03T05:09:50.450Z,67.51
2022-10-03T05:12:20.992Z,67.02
2022-10-03T05:15:10.385Z,67.03
2022-10-03T05:17:51.526Z,66.89
2022-10-03T05:20:18.642Z,67.06
2022-10-03T05:22:51.652Z,67.09
2022-10-03T05:25:18.855Z,67.10
2022-10-03T05:27:54.516Z,66.97
2022-10-03T05:30:40.451Z,67.12
2022-10-03T05:33:08.954Z,67.28
2022-10-03T05:35:42.614Z,66.99
2022-10-03T05:38:13.869Z,67.00
2022-10-03T05:40:41.613Z,66.85
2022-10-03T05:43:11.761Z,67.12
2022-10-03T05:45:44.791Z,66.91
2022-10-03T05:48:22.004Z,67.20
2022-10-03T05:51:13.026Z,66.96
2022-10-03T05:53:40.374Z,66.92
2022-10-03T05:56:26.054Z,66.89
2022-10-03T05:58:54.400Z,67.22
2022-10-03T06:01:34.967Z,67.31
2022-10-03T06:04:08.087Z,67.17
2022-10-03T06:06:53.980Z,67.17
2022-10-03T06:09:33.034Z,67.50
2022-10-03T06:12:02.207Z,67.18
2022-10-03T06:14:33.468Z,66.98
2022-10-03T06:17:21.603Z,67.16
2022-10-03T06:19:54.863Z,66.96
2022-10-03T06:22:28.167Z,67.17
2022-10-03T06:24:58.088Z,66.95
2022-10-03T06:27:32.727Z,67.00
2022-10-03T06:30:12.132Z,66.87
2022-10-03T06:32:57.446Z,67.06
2022-10-03T06:35:50.766Z,67.31
2022-10-03T06:38:29.616Z,67.45
2022-10-03T06:40:59.515Z,67.42
2022-10-03T06:43:44.498Z,67.17
2022-10-03T06:46:16.157Z,67.40
2022-10-03T06:48:55.756Z,67.43
2022-10-03T06:51:30.733Z,67.45
2022-10-03T06:54:16.864Z,67.48
2022-10-03T06:56:50.304Z,67.45
2022-10-03T06:59:46.701Z,67.55
2022-10-03T07:02:25.836Z,67.45
2022-10-03T07:05:11.573Z,67.51
2022-10-03T07:07:53.846Z,67.79
2022-10-03T07:10:27.103Z,68.10
2022-10-03T07:13:08.502Z,67.97
2022-10-03T07:16:08.669Z,67.70
2022-10-03T07:18:41.956Z,67.98
2022-10-03T07:21:21.364Z,68.05
2022-10-03T07:23:57.203Z,68.05
2022-10-03T07:26:43.223Z,68.06
2022-10-03T07:29:13.554Z,68.10
2022-10-03T07:31:44.037Z,68.14
2022-10-03T07:37:27.062Z,68.77
2022-10-03T07:40:13.195Z,68.20
2022-10-03T07:42:59.436Z,68.46
2022-10-03T07:45:34.625Z,68.14
2022-10-03T07:48:17.383Z,68.78
2022-10-03T07:50:57.068Z,68.65
2022-10-03T07:53:43.519Z,68.16
2022-10-03T07:56:20.142Z,68.10
2022-10-03T07:58:51.595Z,67.97
2022-10-03T08:01:27.533Z,67.85
2022-10-03T08:04:13.270Z,68.24
2022-10-03T08:06:44.977Z,68.34
2022-10-03T08:09:12.096Z,68.63
2022-10-03T08:11:57.814Z,68.26
2022-10-03T08:14:43.432Z,68.16
2022-10-03T08:17:13.500Z,68.28
2022-10-03T08:19:59.276Z,68.06
2022-10-03T08:22:45.667Z,67.90
2022-10-03T08:25:12.742Z,68.40
2022-10-03T08:27:44.498Z,68.11
2022-10-03T08:30:21.598Z,68.58
2022-10-03T08:32:49.951Z,68.34
2022-10-03T08:35:20.157Z,68.64
2022-10-03T08:37:53.107Z,68.36
2022-10-03T08:40:26.113Z,68.37
2022-10-03T08:42:59.126Z,68.34
2022-10-03T08:45:26.602Z,68.20
2022-10-03T08:48:12.602Z,67.78
2022-10-03T08:50:45.830Z,67.62
2022-10-03T08:53:31.473Z,67.53
2022-10-03T08:56:00.062Z,68.00
2022-10-03T08:58:27.268Z,67.80
2022-10-03T09:01:00.160Z,67.93
2022-10-03T09:03:45.988Z,67.92
2022-10-03T09:06:13.391Z,67.98
2022-10-03T09:08:49.486Z,67.80
2022-10-03T09:11:25.971Z,68.05
2022-10-03T09:14:11.993Z,68.17
2022-10-03T09:17:02.837Z,67.93
2022-10-03T09:19:29.997Z,67.77
2022-10-03T09:22:03.385Z,66.15
2022-10-03T09:24:30.593Z,67.48
2022-10-03T09:51:23.616Z,70.03
2022-10-03T09:54:22.515Z,69.35
2022-10-03T09:57:25.037Z,68.94
2022-10-03T09:59:58.533Z,68.41
2022-10-03T10:02:59.105Z,68.42
2022-10-03T10:05:51.349Z,67.91
2022-10-03T10:08:42.982Z,68.25
2022-10-03T10:11:35.096Z,68.08
2022-10-03T10:14:19.979Z,68.33
2022-10-03T10:17:23.853Z,67.68
2022-10-03T10:20:10.154Z,67.42
2022-10-03T10:22:56.238Z,67.41
2022-10-03T10:25:46.222Z,67.51
2022-10-03T10:28:24.308Z,67.68
2022-10-03T10:31:12.643Z,67.74
2022-10-03T10:33:45.630Z,68.17
2022-10-03T10:36:52.252Z,67.58
2022-10-03T10:40:09.918Z,67.77
2022-10-03T10:43:06.666Z,67.83
2022-10-03T10:46:11.539Z,68.03
2022-10-03T10:48:44.800Z,67.88
2022-10-03T10:51:56.583Z,68.25
2022-10-03T10:54:41.852Z,68.16
2022-10-03T10:57:41.826Z,68.33
2022-10-03T11:00:31.100Z,68.35
2022-10-03T11:03:23.376Z,68.46
2022-10-03T11:06:09.490Z,68.77
2022-10-03T11:09:00.812Z,68.29
2022-10-03T11:11:53.059Z,68.16
2022-10-03T11:14:30.185Z,68.42
2022-10-03T11:17:15.897Z,67.91
2022-10-03T11:19:55.394Z,67.91
2022-10-03T11:22:41.432Z,68.35
2022-10-03T11:25:40.470Z,67.97
2022-10-03T11:28:33.998Z,68.26
2022-10-03T11:31:28.678Z,68.07
2022-10-03T11:33:59.000Z,68.39
2022-10-03T11:36:44.848Z,68.27
2022-10-03T11:39:23.794Z,68.40
2022-10-03T11:41:53.764Z,68.37
2022-10-03T11:44:21.070Z,68.24
2022-10-03T11:47:25.676Z,68.51
2022-10-03T11:50:30.962Z,68.34
2022-10-03T11:53:10.538Z,67.57
2022-10-03T11:55:51.593Z,67.90
2022-10-03T11:58:41.800Z,67.90
2022-10-03T12:01:18.269Z,67.89
2022-10-03T12:03:59.131Z,68.29
2022-10-03T12:07:06.232Z,68.09
2022-10-03T12:09:40.241Z,68.33
2022-10-03T12:12:16.329Z,68.22
2022-10-03T12:14:46.705Z,68.63
2022-10-03T12:17:36.144Z,68.50
2022-10-03T12:20:23.368Z,68.23
2022-10-03T12:22:59.902Z,68.29
2022-10-03T12:25:30.408Z,68.50
2022-10-03T12:28:18.128Z,68.41
2022-10-03T12:31:10.489Z,68.36
2022-10-03T12:33:55.045Z,68.39
2022-10-03T12:36:34.280Z,68.45
2022-10-03T12:39:32.301Z,68.44
2022-10-03T12:42:20.792Z,68.72
2022-10-03T12:44:50.780Z,68.58
2022-10-03T12:47:43.942Z,68.57
2022-10-03T12:50:24.145Z,68.61
2022-10-03T12:53:04.602Z,68.41
2022-10-03T12:55:33.881Z,68.75
2022-10-03T12:58:33.651Z,68.83
2022-10-03T13:01:08.685Z,68.63
2022-10-03T13:03:38.957Z,68.72
2022-10-03T13:06:44.550Z,68.54
2022-10-03T13:09:21.551Z,68.69
2022-10-03T13:12:01.869Z,68.36
2022-10-03T13:15:21.637Z,68.63
2022-10-03T13:17:54.091Z,68.61
2022-10-03T13:20:24.106Z,68.71
2022-10-03T13:23:06.954Z,68.69
2022-10-03T13:25:46.400Z,68.28
2022-10-03T13:28:59.448Z,68.65
2022-10-03T13:31:31.056Z,68.63
2022-10-03T13:34:04.378Z,68.60
2022-10-03T13:36:51.149Z,68.65
2022-10-03T13:39:26.091Z,68.65
2022-10-03T13:42:02.074Z,68.83
2022-10-03T13:44:39.060Z,68.78
2022-10-03T13:47:18.699Z,68.53
2022-10-03T13:50:21.936Z,68.75
2022-10-03T13:53:17.696Z,68.83
2022-10-03T13:55:52.111Z,68.74
2022-10-03T13:58:40.944Z,68.95
2022-10-03T14:01:15.156Z,68.99
2022-10-03T14:03:55.234Z,68.87
2022-10-03T14:06:37.460Z,68.58
2022-10-03T14:09:42.510Z,69.17
2022-10-03T14:12:15.900Z,68.77
2022-10-03T14:14:46.233Z,68.90
2022-10-03T14:17:29.769Z,68.84
2022-10-03T14:20:16.922Z,68.89
2022-10-03T14:23:09.912Z,69.08
2022-10-03T14:26:00.149Z,68.85
2022-10-03T14:28:47.430Z,68.99
2022-10-03T14:31:17.952Z,69.46
2022-10-03T14:33:54.264Z,69.24
2022-10-03T14:36:27.591Z,69.37
2022-10-03T14:39:03.733Z,69.14
2022-10-03T14:41:56.516Z,69.39
2022-10-03T14:44:29.184Z,69.49
2022-10-03T14:47:01.795Z,69.36
2022-10-03T14:52:34.103Z,69.42
2022-10-03T14:55:30.000Z,69.38
2022-10-03T14:58:34.262Z,69.62
2022-10-03T15:01:07.706Z,69.23
2022-10-03T15:03:38.794Z,69.40
2022-10-03T15:06:12.161Z,69.74
2022-10-03T15:08:44.605Z,69.62
2022-10-03T15:11:13.973Z,69.73
2022-10-03T15:13:51.112Z,69.34
2022-10-03T15:16:20.406Z,69.47
2022-10-03T15:18:56.549Z,69.63
2022-10-03T15:21:24.548Z,69.54
2022-10-03T15:23:57.620Z,69.53
2022-10-03T15:26:25.729Z,69.28
2022-10-03T15:28:55.118Z,69.17
2022-10-03T15:31:34.856Z,69.57
2022-10-03T15:34:05.070Z,69.42
2022-10-03T15:36:42.121Z,69.25
2022-10-03T15:39:28.931Z,69.69
2022-10-03T15:42:07.845Z,69.43
2022-10-03T15:44:41.332Z,69.51
2022-10-03T15:47:24.557Z,69.60
2022-10-03T15:49:54.540Z,69.51
2022-10-03T15:52:26.102Z,69.74
2022-10-03T15:55:03.124Z,69.44
2022-10-03T15:57:40.606Z,69.51
2022-10-03T16:00:09.104Z,69.56
2022-10-03T16:02:38.531Z,69.72
2022-10-03T16:05:07.392Z,69.74
2022-10-03T16:07:50.669Z,69.85
2022-10-03T16:10:22.579Z,69.86
2022-10-03T16:13:06.407Z,69.61
2022-10-03T16:15:52.072Z,69.75
2022-10-03T16:18:19.832Z,69.61
2022-10-03T16:20:57.848Z,69.73
2022-10-03T16:23:34.543Z,69.84
2022-10-03T16:26:04.788Z,69.71
2022-10-03T16:28:51.095Z,69.79
2022-10-03T16:31:21.784Z,69.94
2022-10-03T16:33:58.021Z,69.97
2022-10-03T16:36:25.802Z,69.96
2022-10-03T16:38:59.235Z,70.31
2022-10-03T16:41:31.713Z,70.13
2022-10-03T16:44:04.525Z,69.91
2022-10-03T16:46:34.111Z,70.06
2022-10-03T16:49:21.029Z,70.56
2022-10-03T16:52:33.975Z,70.29
2022-10-03T16:55:04.274Z,70.26
2022-10-03T16:57:50.981Z,70.18
2022-10-03T17:00:23.677Z,70.27
2022-10-03T17:02:51.106Z,70.30
2022-10-03T17:05:18.600Z,70.03
2022-10-03T17:07:48.335Z,70.21
2022-10-03T17:10:28.650Z,70.22
2022-10-03T17:13:03.648Z,70.14
2022-10-03T17:15:35.768Z,70.36
2022-10-03T17:18:26.235Z,70.35
2022-10-03T17:21:03.246Z,70.48
2022-10-03T17:23:40.904Z,70.45
2022-10-03T17:26:15.282Z,70.18
2022-10-03T17:28:52.092Z,70.03
2022-10-03T17:31:32.240Z,70.31
2022-10-03T17:34:03.352Z,70.42
2022-10-03T17:36:38.300Z,70.09
2022-10-03T17:39:31.480Z,70.05
2022-10-03T17:42:01.265Z,70.07
2022-10-03T17:44:51.512Z,70.03
2022-10-03T17:47:23.108Z,70.02
2022-10-03T17:50:11.224Z,69.96
2022-10-03T17:52:44.173Z,70.04
2022-10-03T17:55:42.389Z,70.30
2022-10-03T17:58:13.609Z,70.28
2022-10-03T18:00:46.695Z,70.12
2022-10-03T18:03:27.913Z,69.73
2022-10-03T18:06:01.575Z,69.86
2022-10-03T18:08:30.123Z,69.88
2022-10-03T18:10:58.544Z,70.13
2022-10-03T18:13:39.578Z,69.32
2022-10-03T18:16:12.556Z,69.53
2022-10-03T18:19:21.620Z,69.72
2022-10-03T18:21:48.934Z,70.00
2022-10-03T18:24:37.099Z,69.69
2022-10-03T18:27:30.226Z,69.77
2022-10-03T18:30:15.357Z,69.76
2022-10-03T18:32:42.900Z,69.38
2022-10-03T18:35:21.713Z,69.51
2022-10-03T18:38:00.718Z,69.58
2022-10-03T18:40:29.762Z,69.42
2022-10-03T18:42:57.316Z,69.46
2022-10-03T18:45:38.347Z,69.53
2022-10-03T18:48:14.407Z,69.70
2022-10-03T18:50:51.936Z,69.71
2022-10-03T18:53:27.737Z,69.62
2022-10-03T18:56:03.400Z,69.55
2022-10-03T18:58:38.042Z,69.58
2022-10-03T19:01:15.918Z,69.54
2022-10-03T19:03:53.567Z,69.20
2022-10-03T19:06:26.122Z,69.46
2022-10-03T19:09:27.918Z,69.38
2022-10-03T19:12:07.394Z,69.28
2022-10-03T19:14:40.854Z,69.21
2022-10-03T19:17:27.061Z,69.30
2022-10-03T19:19:59.426Z,69.25
2022-10-03T19:22:59.070Z,69.53
2022-10-03T19:25:27.486Z,69.15
2022-10-03T19:28:00.003Z,69.02
2022-10-03T19:30:28.471Z,69.08
2022-10-03T19:32:58.792Z,69.35
2022-10-03T19:35:26.197Z,69.09
2022-10-03T19:38:24.191Z,69.25
2022-10-03T19:40:56.935Z,68.89
2022-10-03T19:43:41.048Z,69.07
2022-10-03T19:46:33.325Z,69.14
2022-10-03T19:49:00.773Z,68.95
2022-10-03T19:51:28.169Z,69.18
2022-10-03T19:54:00.081Z,69.20
2022-10-03T19:56:30.404Z,69.11
2022-10-03T19:59:07.280Z,68.89
2022-10-03T20:01:42.677Z,68.92
2022-10-03T20:04:12.275Z,68.96
2022-10-03T20:06:58.040Z,68.66
2022-10-03T20:09:29.017Z,69.14
2022-10-03T20:12:09.009Z,68.84
2022-10-03T20:14:37.545Z,69.06
2022-10-03T20:17:09.819Z,69.08
2022-10-03T20:19:43.098Z,69.11
2022-10-03T20:22:11.483Z,69.68
2022-10-03T20:24:44.677Z,69.17
2022-10-03T20:27:30.688Z,69.77
2022-10-03T20:30:19.571Z,69.15
2022-10-03T20:32:47.019Z,69.38
2022-10-03T20:35:19.217Z,69.13
2022-10-03T20:37:48.571Z,69.47
2022-10-03T20:40:24.130Z,69.25
2022-10-03T20:42:51.785Z,69.04
2022-10-03T20:45:26.417Z,69.43
2022-10-03T20:48:09.990Z,69.27
2022-10-03T20:50:44.531Z,69.33
2022-10-03T20:53:19.322Z,69.42
2022-10-03T20:55:52.879Z,69.14
2022-10-03T20:58:38.537Z,69.15
2022-10-03T21:01:16.411Z,69.54
2022-10-03T21:03:46.842Z,69.11
2022-10-03T21:06:19.882Z,69.60
2022-10-03T21:08:47.260Z,69.19
2022-10-03T21:11:19.041Z,69.20
2022-10-03T21:14:01.771Z,69.16
2022-10-03T21:16:31.048Z,68.94
2022-10-03T21:19:05.794Z,69.52
2022-10-03T21:21:42.210Z,68.90
2022-10-03T21:24:16.606Z,69.24
2022-10-03T21:26:47.845Z,69.11
2022-10-03T21:29:15.329Z,69.37
2022-10-03T21:32:11.911Z,69.07
2022-10-03T21:35:22.306Z,68.97
2022-10-03T21:38:05.682Z,69.22
2022-10-03T21:41:17.307Z,69.45
2022-10-03T21:44:02.175Z,69.36
2022-10-03T21:46:50.057Z,69.23
2022-10-03T21:49:38.779Z,69.08
2022-10-03T21:52:24.460Z,68.95
2022-10-03T21:55:16.899Z,69.07
2022-10-03T21:58:15.703Z,69.29
2022-10-03T22:01:12.883Z,68.64
2022-10-03T22:04:22.209Z,68.78
2022-10-03T22:07:03.418Z,68.92
2022-10-03T22:09:30.837Z,68.39
2022-10-03T22:12:00.618Z,69.00
2022-10-03T22:14:46.450Z,68.92
2022-10-03T22:17:18.596Z,68.78
2022-10-03T22:19:57.209Z,68.52
2022-10-03T22:22:35.573Z,68.79
2022-10-03T22:25:16.617Z,68.70
2022-10-03T22:28:05.008Z,69.14
2022-10-03T22:30:32.785Z,69.17
2022-10-03T22:33:16.992Z,68.81
2022-10-03T22:36:02.125Z,69.05
2022-10-03T22:38:33.431Z,68.99
2022-10-03T22:41:02.593Z,69.54
2022-10-03T22:43:48.947Z,69.32
2022-10-03T22:46:21.483Z,69.48
2022-10-03T22:48:50.400Z,69.57
2022-10-03T22:51:20.247Z,69.18
2022-10-03T22:53:53.506Z,69.35
2022-10-03T22:56:36.054Z,69.36
2022-10-03T22:59:09.591Z,69.40
2022-10-03T23:01:37.080Z,69.52
2022-10-03T23:04:05.471Z,69.57
2022-10-03T23:06:41.661Z,69.08
2022-10-03T23:09:35.149Z,69.53
2022-10-03T23:12:02.609Z,69.49
2022-10-03T23:14:33.242Z,69.50
2022-10-03T23:17:31.473Z,69.17
2022-10-03T23:20:06.974Z,69.40
2022-10-03T23:22:55.079Z,69.33
2022-10-03T23:25:26.103Z,68.70
2022-10-03T23:28:02.891Z,69.12
2022-10-03T23:30:30.243Z,69.11
2022-10-03T23:33:00.817Z,68.92
2022-10-03T23:35:31.009Z,68.79
2022-10-03T23:37:59.272Z,68.76
2022-10-03T23:40:29.629Z,68.79
2022-10-03T23:43:05.524Z,68.44
2022-10-03T23:45:35.927Z,68.72
2022-10-03T23:48:06.795Z,68.86
2022-10-03T23:50:47.391Z,69.33
2022-10-03T23:53:20.455Z,69.11
2022-10-03T23:55:50.741Z,68.83
2022-10-03T23:58:22.689Z,69.02
